Time;durP1;ratioP1;P1;durP2;ratioP2;P2;SDS_P1;SDS_P2;PMS_P1;PMS_P2;Temp;Humidity;BMP_temperature;BMP_pressure;BME280_temperature;BME280_humidity;BME280_pressure;Samples;Min_cycle;Max_cycle;Signal;HPM_P1;HPM_P2
2021/11/30 00:01:32;;;;;;;3.83;1.58;;;6.30;83.30;;;;;;5093293;28;20036;-81
2021/11/30 00:03:59;;;;;;;3.88;1.63;;;6.30;83.20;;;;;;5093513;28;20090;-81
2021/11/30 00:06:25;;;;;;;6.88;2.10;;;6.30;82.80;;;;;;5091424;28;20076;-81
2021/11/30 00:08:57;;;;;;;6.20;2.08;;;6.20;82.70;;;;;;5091689;28;20055;-81
2021/11/30 00:11:23;;;;;;;2.85;1.70;;;6.20;82.80;;;;;;5094479;28;20484;-81
2021/11/30 00:13:49;;;;;;;3.25;1.60;;;6.20;82.80;;;;;;5096183;28;20024;-80
2021/11/30 00:16:16;;;;;;;5.53;1.98;;;6.20;82.80;;;;;;5096580;28;20108;-81
2021/11/30 00:18:42;;;;;;;5.88;2.28;;;6.30;82.90;;;;;;5097379;28;20035;-81
2021/11/30 00:21:10;;;;;;;5.35;1.80;;;6.30;82.80;;;;;;5095965;28;20028;-81
2021/11/30 00:23:37;;;;;;;9.15;2.30;;;6.30;82.70;;;;;;5095932;28;20031;-81
2021/11/30 00:26:04;;;;;;;5.95;2.38;;;6.30;82.70;;;;;;5095982;28;20051;-81
2021/11/30 00:28:29;;;;;;;7.07;2.78;;;6.30;82.70;;;;;;5095778;28;20028;-81
2021/11/30 00:30:55;;;;;;;7.20;3.25;;;6.20;82.70;;;;;;5097212;28;20028;-81
2021/11/30 00:33:21;;;;;;;5.05;2.97;;;6.20;82.70;;;;;;5095804;28;20476;-81
2021/11/30 00:35:47;;;;;;;6.43;3.15;;;6.20;82.70;;;;;;5097038;28;20029;-81
2021/11/30 00:38:14;;;;;;;8.35;3.70;;;6.20;82.90;;;;;;5097002;28;20106;-81
2021/11/30 00:40:41;;;;;;;11.95;4.40;;;6.30;82.90;;;;;;5095651;28;20024;-81
2021/11/30 00:43:08;;;;;;;8.10;3.83;;;6.20;82.90;;;;;;5095745;28;20036;-80
2021/11/30 00:45:49;;;;;;;7.90;4.30;;;6.30;82.90;;;;;;5095550;28;20035;-81
2021/11/30 00:48:20;;;;;;;9.65;3.88;;;6.20;82.70;;;;;;5096985;28;20046;-81
2021/11/30 00:50:46;;;;;;;9.73;3.80;;;6.20;82.80;;;;;;5095919;28;20431;-81
2021/11/30 00:53:12;;;;;;;9.07;4.15;;;6.20;82.90;;;;;;5095398;28;20028;-81
2021/11/30 00:55:38;;;;;;;10.77;4.30;;;6.20;82.80;;;;;;5095565;28;20020;-81
2021/11/30 00:58:05;;;;;;;8.15;4.00;;;6.20;82.70;;;;;;5095292;28;20024;-80
2021/11/30 01:00:34;;;;;;;12.38;5.05;;;6.20;83.40;;;;;;5096649;28;20503;-81
2021/11/30 01:03:01;;;;;;;13.73;4.82;;;6.20;82.70;;;;;;5096518;28;20056;-81
2021/11/30 01:05:27;;;;;;;9.50;4.28;;;6.20;82.30;;;;;;5095121;28;20131;-81
2021/11/30 01:07:54;;;;;;;6.55;3.90;;;6.20;82.10;;;;;;5096432;28;20056;-81
2021/11/30 01:10:20;;;;;;;8.05;4.07;;;6.20;82.20;;;;;;5096278;28;20047;-81
2021/11/30 01:12:46;;;;;;;9.63;3.90;;;6.20;82.20;;;;;;5096184;28;20032;-81
2021/11/30 01:15:16;;;;;;;9.45;3.83;;;6.20;82.00;;;;;;5096494;28;20028;-80
2021/11/30 01:17:42;;;;;;;6.35;3.28;;;6.20;81.80;;;;;;5095062;28;20518;-81
2021/11/30 01:20:09;;;;;;;8.18;3.38;;;6.20;81.80;;;;;;5094811;28;20067;-81
2021/11/30 01:22:35;;;;;;;7.60;3.72;;;6.20;81.10;;;;;;5094001;28;20032;-81
2021/11/30 01:25:01;;;;;;;7.55;3.30;;;6.20;81.10;;;;;;5095378;28;20024;-81
2021/11/30 01:27:27;;;;;;;6.07;2.88;;;6.20;80.90;;;;;;5094769;28;20046;-80
2021/11/30 01:29:53;;;;;;;8.13;3.30;;;6.20;81.00;;;;;;5096022;28;20387;-81
2021/11/30 01:32:19;;;;;;;7.28;3.28;;;6.20;80.40;;;;;;5094481;28;20035;-81
2021/11/30 01:34:44;;;;;;;5.72;2.83;;;6.20;80.40;;;;;;5094440;28;20506;-80
2021/11/30 01:37:14;;;;;;;5.80;3.10;;;6.10;80.60;;;;;;5095369;28;20028;-80
2021/11/30 01:39:42;;;;;;;12.27;4.32;;;6.10;80.80;;;;;;5095877;28;20152;-80
2021/11/30 01:42:08;;;;;;;8.55;3.40;;;6.10;80.50;;;;;;5094568;28;20123;-80
2021/11/30 01:44:45;;;;;;;5.95;3.42;;;6.10;80.90;;;;;;5095771;28;20020;-80
2021/11/30 01:50:00;;;;;;;7.78;3.88;;;6.00;81.40;;;;;;5096451;28;20027;-80
2021/11/30 01:52:27;;;;;;;9.35;3.75;;;5.90;81.80;;;;;;5095906;28;20026;-80
2021/11/30 01:54:53;;;;;;;6.63;3.67;;;5.90;82.10;;;;;;5094833;28;20452;-80
2021/11/30 01:57:22;;;;;;;6.82;3.55;;;5.80;82.50;;;;;;5094767;28;20020;-80
2021/11/30 01:59:48;;;;;;;8.20;3.65;;;5.80;82.90;;;;;;5094552;28;20030;-80
2021/11/30 02:02:14;;;;;;;6.30;3.60;;;5.70;83.10;;;;;;5094357;28;20050;-80
2021/11/30 02:04:41;;;;;;;11.35;4.35;;;5.70;83.40;;;;;;5094402;28;20012;-80
2021/11/30 02:07:08;;;;;;;10.48;4.20;;;5.70;83.50;;;;;;5095631;28;20116;-79
2021/11/30 02:09:34;;;;;;;14.13;4.82;;;5.60;83.70;;;;;;5094361;28;20472;-80
2021/11/30 02:12:01;;;;;;;14.60;5.18;;;5.60;84.00;;;;;;5094385;28;20113;-80
2021/11/30 02:14:27;;;;;;;17.48;5.97;;;5.60;84.30;;;;;;5094098;28;20028;-80
2021/11/30 02:16:53;;;;;;;16.35;5.65;;;5.60;84.40;;;;;;5095325;28;20043;-80
2021/11/30 02:19:18;;;;;;;17.23;6.18;;;5.60;84.60;;;;;;5095231;28;20536;-80
2021/11/30 02:21:44;;;;;;;17.83;6.07;;;5.50;84.70;;;;;;5094192;28;20078;-79
2021/11/30 02:24:10;;;;;;;16.60;6.30;;;5.50;84.80;;;;;;5095418;28;20020;-79
2021/11/30 02:26:38;;;;;;;18.23;7.00;;;5.50;85.10;;;;;;5095393;28;20425;-80
2021/11/30 02:29:05;;;;;;;18.38;6.05;;;5.40;85.30;;;;;;5094209;28;20103;-79
2021/11/30 02:31:35;;;;;;;13.35;5.35;;;5.40;85.60;;;;;;5093927;28;20024;-80
2021/11/30 02:34:03;;;;;;;16.15;6.10;;;5.30;85.70;;;;;;5092619;28;20475;-79
2021/11/30 02:36:48;;;;;;;13.02;5.43;;;5.40;86.00;;;;;;5093652;28;20027;-80
2021/11/30 02:39:20;;;;;;;16.92;6.03;;;5.30;86.00;;;;;;5093542;28;20027;-79
2021/11/30 02:41:47;;;;;;;13.25;5.57;;;5.40;86.20;;;;;;5093536;28;20059;-79
2021/11/30 02:44:15;;;;;;;12.20;5.97;;;5.30;86.10;;;;;;5093579;28;20103;-80
2021/11/30 02:46:47;;;;;;;18.38;6.10;;;5.40;86.30;;;;;;5093383;28;20073;-80
2021/11/30 02:49:16;;;;;;;14.93;6.72;;;5.30;86.40;;;;;;5094593;28;20047;-79
2021/11/30 02:51:45;;;;;;;13.48;5.20;;;5.30;86.60;;;;;;5093417;28;20020;-80
2021/11/30 02:54:13;;;;;;;10.73;5.35;;;5.30;86.60;;;;;;5093262;28;20020;-80
2021/11/30 02:56:43;;;;;;;10.73;5.57;;;5.30;86.60;;;;;;5094304;28;20047;-79
2021/11/30 02:59:09;;;;;;;9.10;5.57;;;5.30;86.70;;;;;;5092835;28;20024;-79
2021/11/30 03:01:36;;;;;;;10.30;5.70;;;5.30;86.70;;;;;;5093019;28;20111;-80
2021/11/30 03:04:12;;;;;;;13.30;6.50;;;5.30;86.80;;;;;;5093197;28;20061;-78
2021/11/30 03:06:42;;;;;;;9.95;5.85;;;5.30;87.10;;;;;;5094266;28;20042;-79
2021/11/30 03:09:09;;;;;;;12.88;7.18;;;5.30;87.20;;;;;;5094288;28;20113;-78
2021/11/30 03:11:35;;;;;;;11.68;6.38;;;5.30;87.50;;;;;;5093247;28;20133;-80
2021/11/30 03:14:01;;;;;;;12.30;6.50;;;5.30;87.60;;;;;;5093191;28;20065;-79
2021/11/30 03:16:26;;;;;;;13.32;8.13;;;5.20;87.70;;;;;;5092806;28;20024;-79
2021/11/30 03:18:52;;;;;;;15.02;7.38;;;5.20;88.10;;;;;;5092748;28;20085;-80
2021/11/30 03:21:18;;;;;;;14.32;8.70;;;5.20;88.30;;;;;;5092410;28;20054;-79
2021/11/30 03:23:43;;;;;;;14.38;8.50;;;5.20;88.50;;;;;;5092671;28;20107;-80
2021/11/30 03:26:10;;;;;;;15.48;7.40;;;5.20;88.70;;;;;;5092531;28;20031;-79
2021/11/30 03:28:37;;;;;;;11.68;7.72;;;5.20;88.70;;;;;;5092306;28;20020;-79
2021/11/30 03:31:05;;;;;;;12.85;8.23;;;5.20;88.90;;;;;;5092503;28;20021;-79
2021/11/30 03:36:17;;;;;;;11.93;8.07;;;5.30;89.20;;;;;;5093905;28;20459;-80
2021/11/30 03:38:43;;;;;;;11.65;8.88;;;5.30;89.20;;;;;;5092155;28;20027;-79
2021/11/30 03:41:10;;;;;;;13.45;9.27;;;5.40;89.60;;;;;;5093561;28;20128;-79
2021/11/30 03:43:36;;;;;;;9.88;7.78;;;5.40;89.60;;;;;;5092260;28;20031;-79
2021/11/30 03:46:02;;;;;;;12.02;8.38;;;5.40;89.70;;;;;;5092998;28;20028;-79
2021/11/30 03:48:28;;;;;;;11.10;7.93;;;5.40;89.80;;;;;;5093608;28;20510;-79
2021/11/30 03:50:54;;;;;;;11.32;8.18;;;5.40;90.00;;;;;;5092276;28;20103;-79
2021/11/30 03:53:20;;;;;;;15.73;10.65;;;5.40;90.00;;;;;;5093118;28;20458;-79
2021/11/30 03:55:46;;;;;;;14.52;11.15;;;5.50;90.20;;;;;;5092304;28;20028;-80
2021/11/30 03:58:11;;;;;;;12.77;10.05;;;5.40;90.30;;;;;;5091880;28;20027;-80
2021/11/30 04:00:37;;;;;;;10.80;8.30;;;5.40;90.40;;;;;;5093337;28;20032;-79
2021/11/30 04:03:04;;;;;;;10.90;8.10;;;5.40;90.40;;;;;;5093409;28;20103;-80
2021/11/30 04:05:30;;;;;;;12.38;9.05;;;5.50;90.40;;;;;;5092016;28;20043;-80
2021/11/30 04:07:56;;;;;;;13.63;10.43;;;5.50;90.40;;;;;;5093409;28;20016;-80
2021/11/30 04:10:21;;;;;;;15.52;9.80;;;5.60;90.60;;;;;;5093231;28;20020;-80
2021/11/30 04:12:48;;;;;;;10.15;9.05;;;5.60;90.50;;;;;;5091974;28;20073;-80
2021/11/30 04:15:14;;;;;;;11.50;8.95;;;5.60;90.60;;;;;;5092058;28;20074;-80
2021/11/30 04:21:01;;;;;;;11.45;8.68;;;5.70;90.80;;;;;;5093029;28;20116;-80
2021/11/30 04:23:28;;;;;;;9.02;8.02;;;5.70;90.90;;;;;;5091811;28;20103;-80
2021/11/30 04:25:53;;;;;;;10.93;8.63;;;5.70;90.90;;;;;;5091975;28;20050;-79
2021/11/30 04:28:19;;;;;;;7.72;6.90;;;5.80;91.00;;;;;;5091599;28;20476;-79
2021/11/30 04:30:45;;;;;;;7.60;6.80;;;5.80;91.20;;;;;;5091800;28;20020;-80
2021/11/30 04:33:11;;;;;;;8.70;7.80;;;5.90;91.20;;;;;;5092876;28;20024;-79
2021/11/30 04:35:37;;;;;;;7.82;6.45;;;6.00;91.50;;;;;;5091748;28;20039;-79
2021/11/30 04:38:02;;;;;;;9.60;8.38;;;6.00;91.50;;;;;;5092943;28;20031;-80
2021/11/30 04:40:28;;;;;;;8.38;7.57;;;6.10;91.60;;;;;;5091469;28;20016;-80
2021/11/30 04:46:20;;;;;;;8.45;6.60;;;6.20;91.90;;;;;;5092741;28;20070;-80
2021/11/30 04:51:38;;;;;;;6.75;6.05;;;6.20;91.90;;;;;;5099785;28;20031;-80
2021/11/30 04:54:03;;;;;;;7.93;7.13;;;6.30;92.00;;;;;;5092778;28;20104;-80
2021/11/30 04:56:29;;;;;;;5.70;5.10;;;6.30;92.10;;;;;;5091543;28;20052;-80
2021/11/30 04:58:55;;;;;;;6.38;5.60;;;6.40;92.00;;;;;;5094905;28;20024;-80
2021/11/30 05:01:21;;;;;;;6.35;5.75;;;6.40;92.10;;;;;;5095007;28;20076;-80
2021/11/30 05:03:48;;;;;;;6.10;5.50;;;6.40;92.00;;;;;;5095529;28;20051;-80
2021/11/30 05:06:13;;;;;;;5.78;5.25;;;6.50;92.00;;;;;;5095103;28;20036;-77
2021/11/30 05:08:39;;;;;;;6.68;5.97;;;6.50;92.10;;;;;;5094904;28;20541;-77
2021/11/30 05:11:05;;;;;;;5.80;5.20;;;6.50;92.10;;;;;;5095074;28;20025;-77
2021/11/30 05:13:31;;;;;;;6.45;5.85;;;6.60;92.10;;;;;;5096050;28;20091;-77
2021/11/30 05:15:56;;;;;;;7.38;6.68;;;6.60;92.20;;;;;;5094821;28;20028;-77
2021/11/30 05:18:22;;;;;;;5.50;5.00;;;6.60;92.30;;;;;;5095964;28;20031;-77
2021/11/30 05:20:48;;;;;;;6.45;5.70;;;6.70;92.20;;;;;;5095815;28;20020;-77
2021/11/30 05:23:16;;;;;;;5.15;4.65;;;6.70;92.20;;;;;;5094471;28;20066;-77
2021/11/30 05:25:43;;;;;;;5.63;4.63;;;6.70;92.20;;;;;;5094895;28;20655;-77
2021/11/30 05:28:10;;;;;;;5.78;5.28;;;6.80;92.20;;;;;;5094425;28;20468;-77
2021/11/30 05:30:36;;;;;;;4.95;4.55;;;6.80;92.20;;;;;;5094506;28;20016;-77
2021/11/30 05:33:08;;;;;;;5.50;5.00;;;6.80;92.10;;;;;;5094401;28;20032;-77
2021/11/30 05:35:33;;;;;;;5.85;5.30;;;6.90;92.10;;;;;;5094407;28;20038;-77
2021/11/30 05:37:59;;;;;;;6.57;5.97;;;6.90;92.20;;;;;;5094346;28;20394;-77
2021/11/30 05:40:26;;;;;;;5.68;5.15;;;6.90;92.20;;;;;;5094906;28;20077;-77
2021/11/30 05:42:52;;;;;;;6.00;5.40;;;7.00;92.20;;;;;;5091475;28;20039;-78
2021/11/30 05:48:40;;;;;;;4.93;4.43;;;7.00;92.30;;;;;;5095543;28;20031;-76
2021/11/30 05:51:06;;;;;;;5.35;4.85;;;7.00;92.30;;;;;;5094153;28;20020;-78
2021/11/30 05:53:32;;;;;;;5.63;5.07;;;7.10;92.30;;;;;;5094087;28;20020;-77
2021/11/30 05:56:00;;;;;;;5.40;4.90;;;7.10;92.30;;;;;;5095327;28;20387;-77
2021/11/30 05:59:03;;;;;;;5.30;4.80;;;7.20;92.40;;;;;;5091050;28;20502;-77
2021/11/30 06:01:32;;;;;;;5.35;4.85;;;7.20;92.40;;;;;;5093841;28;20020;-77
2021/11/30 06:03:59;;;;;;;5.35;4.85;;;7.20;92.40;;;;;;5093813;28;20024;-77
2021/11/30 06:06:31;;;;;;;5.35;4.85;;;7.30;92.40;;;;;;5093441;28;20097;-77
2021/11/30 06:08:58;;;;;;;7.18;4.53;;;7.30;92.40;;;;;;5094607;28;20028;-78
2021/11/30 06:11:24;;;;;;;6.03;5.43;;;7.30;92.40;;;;;;5093604;28;20034;-77
2021/11/30 06:13:50;;;;;;;5.97;5.38;;;7.30;92.40;;;;;;5093447;28;20450;-77
2021/11/30 06:16:16;;;;;;;6.00;5.40;;;7.40;92.40;;;;;;5093366;28;20013;-77
2021/11/30 06:18:42;;;;;;;7.60;5.60;;;7.40;92.50;;;;;;5093441;28;20020;-75
2021/11/30 06:21:09;;;;;;;6.43;5.82;;;7.40;92.50;;;;;;5094970;28;20376;-76
2021/11/30 06:23:35;;;;;;;6.05;5.45;;;7.50;92.50;;;;;;5093679;28;20056;-76
2021/11/30 06:26:00;;;;;;;5.95;5.43;;;7.50;92.80;;;;;;5093362;28;20050;-77
2021/11/30 06:28:26;;;;;;;6.85;6.00;;;7.50;92.70;;;;;;5093266;28;20044;-77
2021/11/30 06:30:52;;;;;;;5.75;5.15;;;7.60;92.50;;;;;;5093227;28;20022;-77
2021/11/30 06:33:18;;;;;;;5.70;5.13;;;7.60;92.50;;;;;;5093165;28;20024;-76
2021/11/30 06:35:43;;;;;;;5.22;4.72;;;7.60;92.50;;;;;;5094473;28;20055;-76
2021/11/30 06:38:09;;;;;;;6.50;5.72;;;7.70;92.50;;;;;;5093024;28;20051;-76
2021/11/30 06:40:35;;;;;;;5.55;5.05;;;7.70;92.50;;;;;;5094471;28;20024;-77
2021/11/30 06:43:00;;;;;;;5.45;4.85;;;7.70;92.50;;;;;;5094395;28;20037;-77
2021/11/30 06:45:28;;;;;;;5.53;4.68;;;7.80;92.50;;;;;;5089904;28;20092;-77
2021/11/30 06:47:53;;;;;;;5.22;4.72;;;7.80;92.50;;;;;;5092961;28;20476;-77
2021/11/30 06:50:19;;;;;;;6.00;5.10;;;7.80;92.40;;;;;;5092839;28;20023;-76
2021/11/30 06:52:48;;;;;;;5.75;5.15;;;7.90;92.50;;;;;;5092800;28;20031;-77
2021/11/30 06:55:14;;;;;;;5.30;4.80;;;7.90;92.50;;;;;;5092752;28;20391;-76
2021/11/30 07:01:02;;;;;;;4.47;4.07;;;8.00;92.50;;;;;;5094221;28;20114;-77
2021/11/30 07:03:28;;;;;;;5.10;4.35;;;8.10;92.80;;;;;;5092611;28;20454;-78
2021/11/30 07:06:01;;;;;;;4.13;3.72;;;8.10;92.50;;;;;;5092226;28;20071;-78
2021/11/30 07:09:36;;;;;;;4.55;4.15;;;8.20;92.60;;;;;;5092348;28;20040;-77
2021/11/30 07:14:30;;;;;;;5.47;3.90;;;8.30;92.60;;;;;;5093389;28;20043;-78
2021/11/30 07:16:56;;;;;;;5.25;4.07;;;8.30;92.60;;;;;;5092332;28;20020;-78
2021/11/30 07:19:22;;;;;;;5.03;3.90;;;8.40;92.70;;;;;;5089040;28;20020;-77
2021/11/30 07:21:47;;;;;;;5.25;3.97;;;8.50;92.70;;;;;;5093014;28;20036;-77
2021/11/30 07:24:13;;;;;;;3.90;3.50;;;8.50;92.70;;;;;;5092295;28;20023;-77
2021/11/30 07:26:39;;;;;;;4.65;3.90;;;8.50;92.70;;;;;;5092164;28;20020;-77
2021/11/30 07:29:04;;;;;;;7.20;4.72;;;8.60;92.80;;;;;;5092166;28;20015;-77
2021/11/30 07:31:30;;;;;;;6.95;5.30;;;8.70;92.90;;;;;;5092240;28;20020;-77
2021/11/30 07:33:59;;;;;;;6.95;5.00;;;8.70;92.90;;;;;;5092248;28;20073;-77
2021/11/30 07:36:25;;;;;;;6.53;4.57;;;8.70;92.90;;;;;;5092016;28;20511;-77
2021/11/30 07:38:51;;;;;;;6.80;4.63;;;8.80;93.00;;;;;;5071271;28;20041;-77
2021/11/30 07:41:18;;;;;;;7.93;5.43;;;8.80;92.90;;;;;;5054203;28;20036;-76
2021/11/30 07:43:44;;;;;;;8.98;5.45;;;8.90;93.00;;;;;;5054008;28;20055;-77
2021/11/30 07:46:09;;;;;;;5.85;4.78;;;8.90;93.20;;;;;;5054105;28;20021;-77
2021/11/30 07:48:35;;;;;;;6.55;4.25;;;8.90;93.10;;;;;;5054139;28;20037;-76
2021/11/30 07:51:03;;;;;;;8.45;4.63;;;8.90;93.10;;;;;;5053732;28;20122;-77
2021/11/30 07:53:28;;;;;;;6.70;4.40;;;9.00;93.20;;;;;;5054020;28;20028;-77
2021/11/30 07:55:54;;;;;;;6.25;4.35;;;9.00;93.20;;;;;;5054115;28;20051;-77
2021/11/30 07:58:20;;;;;;;5.28;4.35;;;9.00;93.20;;;;;;5053928;28;20040;-77
2021/11/30 08:00:47;;;;;;;5.10;4.40;;;9.00;93.10;;;;;;5054014;28;20488;-77
2021/11/30 08:03:13;;;;;;;6.65;3.95;;;9.00;93.10;;;;;;5053910;28;20024;-79
2021/11/30 08:05:39;;;;;;;6.47;4.50;;;9.10;93.20;;;;;;5070613;28;20044;-78
2021/11/30 08:08:05;;;;;;;6.43;3.90;;;9.10;93.20;;;;;;5070743;28;20481;-78
2021/11/30 08:10:32;;;;;;;6.43;4.07;;;9.10;93.20;;;;;;5082863;28;20119;-78
2021/11/30 08:12:58;;;;;;;8.25;4.72;;;9.10;93.20;;;;;;5091505;28;20051;-78
2021/11/30 08:15:24;;;;;;;6.75;4.55;;;9.10;93.20;;;;;;5092980;28;20027;-79
2021/11/30 08:17:50;;;;;;;6.97;4.32;;;9.10;93.20;;;;;;5091650;28;20024;-78
2021/11/30 08:20:18;;;;;;;5.72;3.33;;;9.20;93.30;;;;;;5091896;28;20073;-79
2021/11/30 08:22:44;;;;;;;4.80;3.40;;;9.20;93.20;;;;;;5091583;28;20171;-78
2021/11/30 08:25:09;;;;;;;5.25;3.60;;;9.20;93.20;;;;;;5091812;28;20095;-77
2021/11/30 08:27:37;;;;;;;5.72;3.30;;;9.20;93.20;;;;;;5092969;28;20027;-77
2021/11/30 08:30:05;;;;;;;6.45;3.60;;;9.20;93.20;;;;;;5091402;28;20031;-78
2021/11/30 08:32:30;;;;;;;4.55;3.30;;;9.20;93.30;;;;;;5094505;28;20020;-75
2021/11/30 08:34:57;;;;;;;5.45;2.90;;;9.20;93.30;;;;;;5095624;28;20501;-76
2021/11/30 08:37:24;;;;;;;4.95;2.92;;;9.20;93.30;;;;;;5095474;28;20065;-75
2021/11/30 08:39:52;;;;;;;3.83;2.65;;;9.20;93.20;;;;;;5095452;28;20012;-75
2021/11/30 08:42:19;;;;;;;6.03;2.90;;;9.30;93.30;;;;;;5096751;28;20046;-75
2021/11/30 08:48:06;;;;;;;3.65;2.50;;;9.30;93.30;;;;;;5096786;28;20278;-75
2021/11/30 08:50:32;;;;;;;4.53;2.60;;;9.30;93.30;;;;;;5095289;28;20016;-76
2021/11/30 08:52:58;;;;;;;5.88;2.97;;;9.40;93.30;;;;;;5096407;28;20495;-76
2021/11/30 08:55:24;;;;;;;5.50;2.63;;;9.40;93.30;;;;;;5095135;28;20050;-76
2021/11/30 08:57:50;;;;;;;4.38;2.35;;;9.40;93.20;;;;;;5095190;28;20024;-75
2021/11/30 09:00:21;;;;;;;2.70;2.17;;;9.40;93.50;;;;;;5095061;28;20028;-75
2021/11/30 09:02:46;;;;;;;2.55;2.10;;;9.40;93.20;;;;;;5094995;28;20024;-76
2021/11/30 09:05:13;;;;;;;4.38;2.42;;;9.40;93.20;;;;;;5095861;28;20063;-76
2021/11/30 09:07:39;;;;;;;3.38;2.03;;;9.40;93.20;;;;;;5096250;28;20028;-76
2021/11/30 09:10:06;;;;;;;4.07;2.28;;;9.50;93.20;;;;;;5094934;28;20035;-75
2021/11/30 09:12:32;;;;;;;4.80;2.30;;;9.50;93.20;;;;;;5094948;28;20394;-75
2021/11/30 09:14:58;;;;;;;4.32;2.60;;;9.50;93.20;;;;;;5095816;28;20101;-75
2021/11/30 09:17:24;;;;;;;7.47;3.15;;;9.50;93.20;;;;;;5094826;28;20107;-75
2021/11/30 09:19:50;;;;;;;4.38;2.15;;;9.60;93.30;;;;;;5094607;28;20074;-75
2021/11/30 09:22:17;;;;;;;2.90;2.13;;;9.50;93.20;;;;;;5094556;28;20395;-76
2021/11/30 09:24:43;;;;;;;3.92;2.08;;;9.60;93.30;;;;;;5096112;28;20038;-76
2021/11/30 09:27:09;;;;;;;4.38;2.15;;;9.60;93.30;;;;;;5095900;28;20024;-76
2021/11/30 09:29:34;;;;;;;4.70;2.25;;;9.60;93.30;;;;;;5094587;28;20047;-75
2021/11/30 09:32:03;;;;;;;3.85;2.00;;;9.60;93.30;;;;;;5095839;28;20050;-76
2021/11/30 09:34:29;;;;;;;3.83;2.20;;;9.70;93.30;;;;;;5094635;28;20032;-76
2021/11/30 09:36:55;;;;;;;3.80;2.00;;;9.70;93.30;;;;;;5094643;28;20032;-75
2021/11/30 09:39:21;;;;;;;4.15;1.65;;;9.70;93.30;;;;;;5094553;28;20035;-76
2021/11/30 09:41:48;;;;;;;5.05;1.85;;;9.70;93.30;;;;;;5094252;28;20085;-76
2021/11/30 09:44:16;;;;;;;2.15;1.90;;;9.70;93.30;;;;;;5093701;28;20110;-75
2021/11/30 09:46:44;;;;;;;2.00;1.60;;;9.70;93.30;;;;;;5094265;28;20032;-76
2021/11/30 09:49:13;;;;;;;3.67;1.60;;;9.80;93.30;;;;;;5094282;28;20028;-77
2021/11/30 09:51:39;;;;;;;3.60;1.70;;;9.80;93.30;;;;;;5094335;28;20032;-76
2021/11/30 09:54:05;;;;;;;5.63;1.60;;;9.80;93.30;;;;;;5094068;28;20111;-75
2021/11/30 09:56:31;;;;;;;2.78;1.45;;;9.80;93.30;;;;;;5095230;28;20075;-75
2021/11/30 09:58:56;;;;;;;2.40;1.20;;;9.80;93.20;;;;;;5095309;28;20032;-76
2021/11/30 10:01:22;;;;;;;2.42;0.85;;;9.80;93.20;;;;;;5095148;28;20040;-74
2021/11/30 10:03:48;;;;;;;0.73;0.60;;;9.80;93.20;;;;;;5093874;28;20024;-75
2021/11/30 10:06:14;;;;;;;0.90;0.40;;;9.80;93.20;;;;;;5093769;28;20548;-75
2021/11/30 10:08:47;;;;;;;1.02;0.50;;;9.70;93.10;;;;;;5093790;28;20388;-75
2021/11/30 10:11:26;;;;;;;0.47;0.40;;;9.80;93.10;;;;;;5095345;28;20028;-76
2021/11/30 10:14:14;;;;;;;0.40;0.30;;;9.70;93.10;;;;;;5094990;28;20797;-76
2021/11/30 10:16:41;;;;;;;0.52;0.30;;;9.60;93.00;;;;;;5094905;28;20020;-76
2021/11/30 10:19:07;;;;;;;0.43;0.22;;;9.60;93.00;;;;;;5094987;28;20391;-75
2021/11/30 10:21:34;;;;;;;0.40;0.30;;;9.50;93.00;;;;;;5093466;28;20027;-75
2021/11/30 10:24:01;;;;;;;1.52;0.45;;;9.50;93.00;;;;;;5094746;28;20361;-75
2021/11/30 10:26:33;;;;;;;0.30;0.20;;;9.40;93.00;;;;;;5094631;28;20553;-75
2021/11/30 10:29:06;;;;;;;2.63;0.40;;;9.40;93.00;;;;;;5094638;28;20392;-75
2021/11/30 10:31:36;;;;;;;0.43;0.30;;;9.40;93.20;;;;;;5093244;28;20028;-75
2021/11/30 10:34:17;;;;;;;0.68;0.17;;;9.40;93.00;;;;;;5093315;28;20048;-74
2021/11/30 10:37:06;;;;;;;0.85;0.20;;;9.40;92.90;;;;;;5093198;28;20021;-75
2021/11/30 10:39:35;;;;;;;2.38;0.90;;;9.30;92.90;;;;;;5091378;28;20045;-75
2021/11/30 10:42:24;;;;;;;2.10;0.65;;;9.30;92.90;;;;;;5093063;28;20036;-76
2021/11/30 10:44:52;;;;;;;0.98;0.20;;;9.30;92.80;;;;;;5093012;28;20506;-75
2021/11/30 10:47:31;;;;;;;2.13;0.65;;;9.20;92.80;;;;;;5092911;28;20108;-75
2021/11/30 10:50:00;;;;;;;1.45;0.30;;;9.20;92.80;;;;;;5093003;28;20020;-76
2021/11/30 10:52:28;;;;;;;0.77;0.25;;;9.20;92.80;;;;;;5094170;28;20488;-75
2021/11/30 10:55:05;;;;;;;0.85;0.30;;;9.10;92.80;;;;;;5091887;28;20056;-76
2021/11/30 10:57:32;;;;;;;0.50;0.30;;;9.20;92.80;;;;;;5092787;28;20125;-75
2021/11/30 11:00:10;;;;;;;0.68;0.30;;;9.10;92.80;;;;;;5092879;28;20394;-76
2021/11/30 11:03:11;;;;;;;1.15;0.40;;;9.10;92.80;;;;;;5092607;28;20036;-76
2021/11/30 11:05:40;;;;;;;3.03;0.50;;;9.20;92.80;;;;;;5093379;28;20036;-76
2021/11/30 11:08:10;;;;;;;1.33;0.40;;;9.20;92.80;;;;;;5092619;28;20510;-75
2021/11/30 11:10:42;;;;;;;0.95;0.30;;;9.20;92.80;;;;;;5093920;28;20020;-76
2021/11/30 11:13:17;;;;;;;1.15;0.35;;;9.10;93.00;;;;;;5092794;28;20089;-76
2021/11/30 11:15:43;;;;;;;1.75;0.40;;;9.10;92.70;;;;;;5093891;28;20373;-76
2021/11/30 11:18:31;;;;;;;1.77;0.40;;;9.20;92.80;;;;;;5092297;28;20043;-76
2021/11/30 11:21:15;;;;;;;1.45;0.40;;;9.20;92.70;;;;;;5093698;28;20036;-76
2021/11/30 11:23:43;;;;;;;4.18;0.70;;;9.20;92.70;;;;;;5092175;28;20043;-76
2021/11/30 11:26:25;;;;;;;1.45;0.52;;;9.20;92.70;;;;;;5092161;28;20046;-76
2021/11/30 11:28:52;;;;;;;1.77;0.70;;;9.20;92.70;;;;;;5092516;28;20024;-76
2021/11/30 11:31:19;;;;;;;2.40;0.57;;;9.20;92.70;;;;;;5092195;28;20046;-75
2021/11/30 11:33:45;;;;;;;2.28;0.52;;;9.20;92.70;;;;;;5092165;28;20035;-76
2021/11/30 11:39:32;;;;;;;3.17;0.60;;;9.20;92.70;;;;;;5093825;28;20034;-76
2021/11/30 11:42:00;;;;;;;2.33;0.50;;;9.20;92.70;;;;;;5091999;28;20028;-76
2021/11/30 11:44:27;;;;;;;2.42;0.50;;;9.20;92.70;;;;;;5093223;28;20432;-75
2021/11/30 11:46:57;;;;;;;3.40;0.77;;;9.20;92.70;;;;;;5092196;28;20124;-75
2021/11/30 11:49:25;;;;;;;2.22;0.47;;;9.20;92.70;;;;;;5092208;28;20130;-76
2021/11/30 11:51:52;;;;;;;4.43;1.20;;;9.20;92.80;;;;;;5091815;28;20142;-75
2021/11/30 11:54:31;;;;;;;2.88;0.68;;;9.20;92.80;;;;;;5091857;28;20032;-76
2021/11/30 11:57:10;;;;;;;2.50;0.50;;;9.20;92.70;;;;;;5091830;28;20135;-76
2021/11/30 11:59:40;;;;;;;3.47;0.60;;;9.20;92.70;;;;;;5091780;28;20115;-75
2021/11/30 12:02:20;;;;;;;1.77;0.63;;;9.20;92.70;;;;;;5092907;28;20033;-76
2021/11/30 12:05:16;;;;;;;2.80;0.73;;;9.20;92.70;;;;;;5091666;28;20043;-76
2021/11/30 12:08:01;;;;;;;2.10;0.55;;;9.20;92.70;;;;;;5089280;28;20511;-76
2021/11/30 12:10:29;;;;;;;3.58;0.80;;;9.30;92.70;;;;;;5098453;28;20093;-76
2021/11/30 12:13:21;;;;;;;2.10;0.60;;;9.20;92.70;;;;;;5098764;28;20115;-76
2021/11/30 12:16:04;;;;;;;2.20;0.50;;;9.20;92.70;;;;;;5098384;28;20051;-76
2021/11/30 12:18:36;;;;;;;2.35;0.70;;;9.30;92.70;;;;;;5099725;28;20036;-76
2021/11/30 12:21:08;;;;;;;3.25;0.57;;;9.30;92.70;;;;;;5098321;28;20036;-76
2021/11/30 12:23:35;;;;;;;2.75;0.73;;;9.30;92.70;;;;;;5099607;28;20078;-76
2021/11/30 12:26:01;;;;;;;4.13;0.63;;;9.40;92.70;;;;;;5099606;28;20035;-75
2021/11/30 12:28:39;;;;;;;1.20;0.50;;;9.40;92.70;;;;;;5098205;28;20023;-76
2021/11/30 12:31:07;;;;;;;2.00;0.60;;;9.40;92.60;;;;;;5098265;28;20016;-76
2021/11/30 12:33:37;;;;;;;2.08;0.55;;;9.40;92.60;;;;;;5098726;28;20027;-75
2021/11/30 12:36:12;;;;;;;1.60;0.40;;;9.40;92.60;;;;;;5098569;28;20020;-76
2021/11/30 12:38:58;;;;;;;1.52;0.55;;;9.40;92.60;;;;;;5098098;28;20028;-76
2021/11/30 12:41:37;;;;;;;1.83;0.68;;;9.40;92.60;;;;;;5098414;28;20024;-75
2021/11/30 12:44:18;;;;;;;2.35;0.60;;;9.40;92.60;;;;;;5098214;28;20081;-75
2021/11/30 12:46:52;;;;;;;2.20;0.63;;;9.40;92.60;;;;;;5098030;28;20441;-76
2021/11/30 12:52:26;;;;;;;0.90;0.50;;;9.40;92.60;;;;;;5099899;28;20028;-76
2021/11/30 12:54:54;;;;;;;3.08;0.40;;;9.40;92.60;;;;;;5098485;28;20024;-75
2021/11/30 12:57:28;;;;;;;1.77;0.70;;;9.40;92.60;;;;;;5098113;28;20045;-76
2021/11/30 12:59:59;;;;;;;1.63;0.52;;;9.40;92.50;;;;;;5098199;28;20054;-76
2021/11/30 13:02:36;;;;;;;1.95;0.40;;;9.40;92.50;;;;;;5098193;28;20506;-76
2021/11/30 13:05:08;;;;;;;0.40;0.38;;;9.50;92.50;;;;;;5098086;28;20396;-77
2021/11/30 13:07:56;;;;;;;1.10;0.52;;;9.50;92.50;;;;;;5098152;28;20032;-76
2021/11/30 13:10:25;;;;;;;1.23;0.32;;;9.50;92.50;;;;;;5095763;28;20085;-77
2021/11/30 13:16:12;;;;;;;1.70;0.40;;;9.40;92.40;;;;;;5099654;28;20035;-75
2021/11/30 13:18:38;;;;;;;0.52;0.25;;;9.40;92.50;;;;;;5094877;28;20024;-76
2021/11/30 13:21:06;;;;;;;1.65;0.32;;;9.40;92.50;;;;;;5094687;28;20365;-78
2021/11/30 13:23:32;;;;;;;0.93;0.60;;;9.30;92.50;;;;;;5095997;28;20034;-76
2021/11/30 13:25:57;;;;;;;1.30;0.47;;;9.40;92.50;;;;;;5094624;28;20028;-76
2021/11/30 13:28:29;;;;;;;0.30;0.30;;;9.30;92.50;;;;;;5094574;28;20735;-76
2021/11/30 13:30:58;;;;;;;3.08;0.88;;;9.30;92.50;;;;;;5094558;28;20016;-76
2021/11/30 13:33:31;;;;;;;0.85;0.47;;;9.30;92.50;;;;;;5094419;28;20024;-75
2021/11/30 13:36:02;;;;;;;1.40;0.70;;;9.30;92.50;;;;;;5093887;28;20032;-75
2021/11/30 13:38:31;;;;;;;0.68;0.57;;;9.30;92.50;;;;;;5093909;28;20031;-76
2021/11/30 13:41:00;;;;;;;1.75;0.80;;;9.30;92.50;;;;;;5094131;28;20119;-76